sensor_id;sensor_type;location;lat;lon;timestamp;temperature;humidity
15717;DHT22;7960;50.908;4.204;2023-05-29T00:00:59;14.80;99.90
15717;DHT22;7960;50.908;4.204;2023-05-29T00:03:26;14.80;99.90
15717;DHT22;7960;50.908;4.204;2023-05-29T00:05:54;14.70;99.90
15717;DHT22;7960;50.908;4.204;2023-05-29T00:08:22;14.70;99.90
15717;DHT22;7960;50.908;4.204;2023-05-29T00:10:49;14.70;99.90
15717;DHT22;7960;50.908;4.204;2023-05-29T00:13:16;14.60;99.90
15717;DHT22;7960;50.908;4.204;2023-05-29T00:15:42;14.50;99.90
15717;DHT22;7960;50.908;4.204;2023-05-29T00:18:09;14.40;99.90
15717;DHT22;7960;50.908;4.204;2023-05-29T00:20:36;14.50;99.90
15717;DHT22;7960;50.908;4.204;2023-05-29T00:23:03;14.40;99.90
15717;DHT22;7960;50.908;4.204;2023-05-29T00:25:32;14.50;99.90
15717;DHT22;7960;50.908;4.204;2023-05-29T00:27:59;14.50;99.90
15717;DHT22;7960;50.908;4.204;2023-05-29T00:30:26;14.50;99.90
15717;DHT22;7960;50.908;4.204;2023-05-29T00:32:53;14.40;99.90
15717;DHT22;7960;50.908;4.204;2023-05-29T00:35:20;14.30;99.90
15717;DHT22;7960;50.908;4.204;2023-05-29T00:37:47;14.20;99.90
15717;DHT22;7960;50.908;4.204;2023-05-29T00:40:14;14.20;99.90
15717;DHT22;7960;50.908;4.204;2023-05-29T00:42:42;14.20;99.90
15717;DHT22;7960;50.908;4.204;2023-05-29T00:45:10;14.10;99.90
15717;DHT22;7960;50.908;4.204;2023-05-29T00:47:39;14.10;99.90
15717;DHT22;7960;50.908;4.204;2023-05-29T00:50:07;14.00;99.90
15717;DHT22;7960;50.908;4.204;2023-05-29T00:52:35;14.00;99.90
15717;DHT22;7960;50.908;4.204;2023-05-29T00:55:02;14.10;99.90
15717;DHT22;7960;50.908;4.204;2023-05-29T00:57:29;14.00;99.90
15717;DHT22;7960;50.908;4.204;2023-05-29T00:59:58;14.00;99.90
15717;DHT22;7960;50.908;4.204;2023-05-29T01:02:28;13.90;99.90
15717;DHT22;7960;50.908;4.204;2023-05-29T01:04:56;13.90;99.90
15717;DHT22;7960;50.908;4.204;2023-05-29T01:07:23;13.90;99.90
15717;DHT22;7960;50.908;4.204;2023-05-29T01:09:51;13.90;99.90
15717;DHT22;7960;50.908;4.204;2023-05-29T01:12:27;13.80;99.90
15717;DHT22;7960;50.908;4.204;2023-05-29T01:15:14;13.70;99.90
15717;DHT22;7960;50.908;4.204;2023-05-29T01:17:57;13.70;99.90
15717;DHT22;7960;50.908;4.204;2023-05-29T01:20:30;13.80;99.90
15717;DHT22;7960;50.908;4.204;2023-05-29T01:23:12;13.70;99.90
15717;DHT22;7960;50.908;4.204;2023-05-29T01:26:02;13.70;99.90
15717;DHT22;7960;50.908;4.204;2023-05-29T01:28:42;13.80;99.90
15717;DHT22;7960;50.908;4.204;2023-05-29T01:31:09;13.60;99.90
15717;DHT22;7960;50.908;4.204;2023-05-29T01:33:38;13.60;99.90
15717;DHT22;7960;50.908;4.204;2023-05-29T01:36:07;13.50;99.90
15717;DHT22;7960;50.908;4.204;2023-05-29T01:38:33;13.50;99.90
15717;DHT22;7960;50.908;4.204;2023-05-29T01:41:01;13.50;99.90
15717;DHT22;7960;50.908;4.204;2023-05-29T01:43:30;13.40;99.90
15717;DHT22;7960;50.908;4.204;2023-05-29T01:45:59;13.40;99.90
15717;DHT22;7960;50.908;4.204;2023-05-29T01:48:27;13.40;99.90
15717;DHT22;7960;50.908;4.204;2023-05-29T01:50:55;13.40;99.90
15717;DHT22;7960;50.908;4.204;2023-05-29T01:53:22;13.30;99.90
15717;DHT22;7960;50.908;4.204;2023-05-29T01:55:49;13.20;99.90
15717;DHT22;7960;50.908;4.204;2023-05-29T01:58:17;13.30;99.90
15717;DHT22;7960;50.908;4.204;2023-05-29T02:00:46;13.20;99.90
15717;DHT22;7960;50.908;4.204;2023-05-29T02:03:14;13.20;99.90
15717;DHT22;7960;50.908;4.204;2023-05-29T02:05:41;13.20;99.90
15717;DHT22;7960;50.908;4.204;2023-05-29T02:08:08;13.10;99.90
15717;DHT22;7960;50.908;4.204;2023-05-29T02:10:34;13.20;99.90
15717;DHT22;7960;50.908;4.204;2023-05-29T02:13:01;13.10;99.90
15717;DHT22;7960;50.908;4.204;2023-05-29T02:15:28;13.00;99.90
15717;DHT22;7960;50.908;4.204;2023-05-29T02:17:55;12.80;99.90
15717;DHT22;7960;50.908;4.204;2023-05-29T02:20:24;12.80;99.90
15717;DHT22;7960;50.908;4.204;2023-05-29T02:22:51;12.90;99.90
15717;DHT22;7960;50.908;4.204;2023-05-29T02:25:18;12.90;99.90
15717;DHT22;7960;50.908;4.204;2023-05-29T02:27:44;12.80;99.90
15717;DHT22;7960;50.908;4.204;2023-05-29T02:30:12;12.80;99.90
15717;DHT22;7960;50.908;4.204;2023-05-29T02:32:39;12.50;99.90
15717;DHT22;7960;50.908;4.204;2023-05-29T02:35:06;12.60;99.90
15717;DHT22;7960;50.908;4.204;2023-05-29T02:37:35;12.50;99.90
15717;DHT22;7960;50.908;4.204;2023-05-29T02:40:02;12.50;99.90
15717;DHT22;7960;50.908;4.204;2023-05-29T02:42:28;12.40;99.90
15717;DHT22;7960;50.908;4.204;2023-05-29T02:44:55;12.40;99.90
15717;DHT22;7960;50.908;4.204;2023-05-29T02:47:22;12.50;99.90
15717;DHT22;7960;50.908;4.204;2023-05-29T02:49:49;12.50;99.90
15717;DHT22;7960;50.908;4.204;2023-05-29T02:52:16;12.30;99.90
15717;DHT22;7960;50.908;4.204;2023-05-29T02:54:44;12.20;99.90
15717;DHT22;7960;50.908;4.204;2023-05-29T02:57:11;12.20;99.90
15717;DHT22;7960;50.908;4.204;2023-05-29T02:59:37;12.20;99.90
15717;DHT22;7960;50.908;4.204;2023-05-29T03:02:04;12.10;99.90
15717;DHT22;7960;50.908;4.204;2023-05-29T03:04:32;12.20;99.90
15717;DHT22;7960;50.908;4.204;2023-05-29T03:06:58;12.20;99.90
15717;DHT22;7960;50.908;4.204;2023-05-29T03:09:25;12.20;99.90
15717;DHT22;7960;50.908;4.204;2023-05-29T03:11:53;12.10;99.90
15717;DHT22;7960;50.908;4.204;2023-05-29T03:14:20;12.00;99.90
15717;DHT22;7960;50.908;4.204;2023-05-29T03:16:48;12.10;99.90
15717;DHT22;7960;50.908;4.204;2023-05-29T03:19:16;11.80;99.90
15717;DHT22;7960;50.908;4.204;2023-05-29T03:21:42;11.80;99.90
15717;DHT22;7960;50.908;4.204;2023-05-29T03:24:10;11.80;99.90
15717;DHT22;7960;50.908;4.204;2023-05-29T03:26:38;11.90;99.90
15717;DHT22;7960;50.908;4.204;2023-05-29T03:29:07;11.80;99.90
15717;DHT22;7960;50.908;4.204;2023-05-29T03:31:34;11.90;99.90
15717;DHT22;7960;50.908;4.204;2023-05-29T03:34:01;11.80;99.90
15717;DHT22;7960;50.908;4.204;2023-05-29T03:36:28;11.90;99.90
15717;DHT22;7960;50.908;4.204;2023-05-29T03:38:54;11.80;99.90
15717;DHT22;7960;50.908;4.204;2023-05-29T03:41:21;11.80;99.90
15717;DHT22;7960;50.908;4.204;2023-05-29T03:43:48;11.80;99.90
15717;DHT22;7960;50.908;4.204;2023-05-29T03:46:16;11.80;99.90
15717;DHT22;7960;50.908;4.204;2023-05-29T03:48:43;11.80;99.90
15717;DHT22;7960;50.908;4.204;2023-05-29T03:51:10;11.80;99.90
15717;DHT22;7960;50.908;4.204;2023-05-29T03:53:37;11.80;99.90
15717;DHT22;7960;50.908;4.204;2023-05-29T03:56:04;11.80;99.90
15717;DHT22;7960;50.908;4.204;2023-05-29T03:58:31;11.60;99.90
15717;DHT22;7960;50.908;4.204;2023-05-29T04:00:58;11.60;99.90
15717;DHT22;7960;50.908;4.204;2023-05-29T04:03:26;11.60;99.90
15717;DHT22;7960;50.908;4.204;2023-05-29T04:05:54;11.60;99.90
15717;DHT22;7960;50.908;4.204;2023-05-29T04:08:22;11.60;99.90
15717;DHT22;7960;50.908;4.204;2023-05-29T04:10:49;11.50;99.90
15717;DHT22;7960;50.908;4.204;2023-05-29T04:13:19;11.50;99.90
15717;DHT22;7960;50.908;4.204;2023-05-29T04:15:45;11.50;99.90
15717;DHT22;7960;50.908;4.204;2023-05-29T04:18:13;11.40;99.90
15717;DHT22;7960;50.908;4.204;2023-05-29T04:20:41;11.50;99.90
15717;DHT22;7960;50.908;4.204;2023-05-29T04:23:11;11.50;99.90
15717;DHT22;7960;50.908;4.204;2023-05-29T04:25:38;11.40;99.90
15717;DHT22;7960;50.908;4.204;2023-05-29T04:28:05;11.50;99.90
15717;DHT22;7960;50.908;4.204;2023-05-29T04:30:31;11.40;99.90
15717;DHT22;7960;50.908;4.204;2023-05-29T04:32:59;11.50;99.90
15717;DHT22;7960;50.908;4.204;2023-05-29T04:35:26;11.50;99.90
15717;DHT22;7960;50.908;4.204;2023-05-29T04:37:55;11.50;99.90
15717;DHT22;7960;50.908;4.204;2023-05-29T04:40:23;11.60;99.90
15717;DHT22;7960;50.908;4.204;2023-05-29T04:42:50;11.70;99.90
15717;DHT22;7960;50.908;4.204;2023-05-29T04:45:20;11.70;99.90
15717;DHT22;7960;50.908;4.204;2023-05-29T04:47:47;11.70;99.90
15717;DHT22;7960;50.908;4.204;2023-05-29T04:50:17;11.70;99.90
15717;DHT22;7960;50.908;4.204;2023-05-29T04:52:44;11.60;99.90
15717;DHT22;7960;50.908;4.204;2023-05-29T04:55:12;11.60;99.90
15717;DHT22;7960;50.908;4.204;2023-05-29T04:57:39;11.60;99.90
15717;DHT22;7960;50.908;4.204;2023-05-29T05:00:07;11.60;99.90
15717;DHT22;7960;50.908;4.204;2023-05-29T05:02:40;11.50;99.90
15717;DHT22;7960;50.908;4.204;2023-05-29T05:05:07;11.50;99.90
15717;DHT22;7960;50.908;4.204;2023-05-29T05:07:35;11.50;99.90
15717;DHT22;7960;50.908;4.204;2023-05-29T05:10:02;11.60;99.90
15717;DHT22;7960;50.908;4.204;2023-05-29T05:12:30;11.60;99.90
15717;DHT22;7960;50.908;4.204;2023-05-29T05:14:57;11.50;99.90
15717;DHT22;7960;50.908;4.204;2023-05-29T05:17:24;11.60;99.90
15717;DHT22;7960;50.908;4.204;2023-05-29T05:19:51;11.60;99.90
15717;DHT22;7960;50.908;4.204;2023-05-29T05:22:20;11.60;99.90
15717;DHT22;7960;50.908;4.204;2023-05-29T05:24:47;11.70;99.90
15717;DHT22;7960;50.908;4.204;2023-05-29T05:27:13;11.80;99.90
15717;DHT22;7960;50.908;4.204;2023-05-29T05:29:42;11.80;99.90
15717;DHT22;7960;50.908;4.204;2023-05-29T05:32:08;11.80;99.90
15717;DHT22;7960;50.908;4.204;2023-05-29T05:34:35;11.70;99.90
15717;DHT22;7960;50.908;4.204;2023-05-29T05:37:02;11.60;99.90
15717;DHT22;7960;50.908;4.204;2023-05-29T05:39:29;11.70;99.90
15717;DHT22;7960;50.908;4.204;2023-05-29T05:41:56;11.70;99.90
15717;DHT22;7960;50.908;4.204;2023-05-29T05:44:23;11.80;99.90
15717;DHT22;7960;50.908;4.204;2023-05-29T05:46:51;11.90;99.90
15717;DHT22;7960;50.908;4.204;2023-05-29T05:49:18;11.90;99.90
15717;DHT22;7960;50.908;4.204;2023-05-29T05:51:45;12.10;99.90
15717;DHT22;7960;50.908;4.204;2023-05-29T05:54:12;12.10;99.90
15717;DHT22;7960;50.908;4.204;2023-05-29T05:56:38;12.30;99.90
15717;DHT22;7960;50.908;4.204;2023-05-29T05:59:05;12.40;99.90
15717;DHT22;7960;50.908;4.204;2023-05-29T06:01:32;12.30;99.90
15717;DHT22;7960;50.908;4.204;2023-05-29T06:04:00;12.30;99.90
15717;DHT22;7960;50.908;4.204;2023-05-29T06:06:27;12.30;99.90
15717;DHT22;7960;50.908;4.204;2023-05-29T06:08:54;12.40;99.90
15717;DHT22;7960;50.908;4.204;2023-05-29T06:11:22;12.50;99.90
15717;DHT22;7960;50.908;4.204;2023-05-29T06:13:49;12.40;99.90
15717;DHT22;7960;50.908;4.204;2023-05-29T06:16:18;12.40;99.90
15717;DHT22;7960;50.908;4.204;2023-05-29T06:18:45;12.40;99.90
15717;DHT22;7960;50.908;4.204;2023-05-29T06:21:13;12.40;99.90
15717;DHT22;7960;50.908;4.204;2023-05-29T06:23:40;12.30;99.90
15717;DHT22;7960;50.908;4.204;2023-05-29T06:26:08;12.30;99.90
15717;DHT22;7960;50.908;4.204;2023-05-29T06:28:35;12.30;99.90
15717;DHT22;7960;50.908;4.204;2023-05-29T06:31:02;12.30;99.90
15717;DHT22;7960;50.908;4.204;2023-05-29T06:33:29;12.50;99.90
15717;DHT22;7960;50.908;4.204;2023-05-29T06:35:56;12.60;99.90
15717;DHT22;7960;50.908;4.204;2023-05-29T06:38:24;12.70;99.90
15717;DHT22;7960;50.908;4.204;2023-05-29T06:40:51;12.80;99.90
15717;DHT22;7960;50.908;4.204;2023-05-29T06:43:18;12.80;99.90
15717;DHT22;7960;50.908;4.204;2023-05-29T06:45:45;12.90;99.90
15717;DHT22;7960;50.908;4.204;2023-05-29T06:48:12;12.90;99.90
15717;DHT22;7960;50.908;4.204;2023-05-29T06:50:38;12.80;99.90
15717;DHT22;7960;50.908;4.204;2023-05-29T06:53:05;12.90;99.90
15717;DHT22;7960;50.908;4.204;2023-05-29T06:55:33;13.10;99.90
15717;DHT22;7960;50.908;4.204;2023-05-29T06:58:00;13.30;99.90
15717;DHT22;7960;50.908;4.204;2023-05-29T07:00:27;13.30;99.90
15717;DHT22;7960;50.908;4.204;2023-05-29T07:02:54;13.30;99.90
15717;DHT22;7960;50.908;4.204;2023-05-29T07:05:23;13.40;99.90
15717;DHT22;7960;50.908;4.204;2023-05-29T07:07:49;13.50;99.90
15717;DHT22;7960;50.908;4.204;2023-05-29T07:10:16;13.60;99.90
15717;DHT22;7960;50.908;4.204;2023-05-29T07:12:44;13.70;99.90
15717;DHT22;7960;50.908;4.204;2023-05-29T07:15:12;13.70;99.90
15717;DHT22;7960;50.908;4.204;2023-05-29T07:17:38;13.70;99.90
15717;DHT22;7960;50.908;4.204;2023-05-29T07:20:07;13.70;99.90
15717;DHT22;7960;50.908;4.204;2023-05-29T07:22:34;13.70;99.90
15717;DHT22;7960;50.908;4.204;2023-05-29T07:25:00;13.80;99.90
15717;DHT22;7960;50.908;4.204;2023-05-29T07:27:27;13.70;99.90
15717;DHT22;7960;50.908;4.204;2023-05-29T07:29:56;13.80;99.90
15717;DHT22;7960;50.908;4.204;2023-05-29T07:32:22;13.80;99.90
15717;DHT22;7960;50.908;4.204;2023-05-29T07:34:49;13.90;99.90
15717;DHT22;7960;50.908;4.204;2023-05-29T07:37:16;14.00;99.90
15717;DHT22;7960;50.908;4.204;2023-05-29T07:39:44;14.00;99.90
15717;DHT22;7960;50.908;4.204;2023-05-29T07:42:11;14.00;99.90
15717;DHT22;7960;50.908;4.204;2023-05-29T07:44:38;14.10;99.90
15717;DHT22;7960;50.908;4.204;2023-05-29T07:47:08;14.20;99.90
15717;DHT22;7960;50.908;4.204;2023-05-29T07:49:36;14.30;99.90
15717;DHT22;7960;50.908;4.204;2023-05-29T07:52:03;14.30;99.90
15717;DHT22;7960;50.908;4.204;2023-05-29T07:54:30;14.40;99.90
15717;DHT22;7960;50.908;4.204;2023-05-29T07:56:58;14.50;99.90
15717;DHT22;7960;50.908;4.204;2023-05-29T07:59:25;14.50;99.90
15717;DHT22;7960;50.908;4.204;2023-05-29T08:01:52;14.50;99.90
15717;DHT22;7960;50.908;4.204;2023-05-29T08:04:20;14.50;99.90
15717;DHT22;7960;50.908;4.204;2023-05-29T08:06:47;14.60;99.90
15717;DHT22;7960;50.908;4.204;2023-05-29T08:09:14;14.70;99.90
15717;DHT22;7960;50.908;4.204;2023-05-29T08:11:41;14.60;99.90
15717;DHT22;7960;50.908;4.204;2023-05-29T08:14:07;14.60;99.90
15717;DHT22;7960;50.908;4.204;2023-05-29T08:16:34;14.60;99.90
15717;DHT22;7960;50.908;4.204;2023-05-29T08:19:01;14.70;99.90
15717;DHT22;7960;50.908;4.204;2023-05-29T08:21:30;14.70;99.90
15717;DHT22;7960;50.908;4.204;2023-05-29T08:23:58;14.90;99.90
15717;DHT22;7960;50.908;4.204;2023-05-29T08:26:25;15.00;99.90
15717;DHT22;7960;50.908;4.204;2023-05-29T08:28:52;15.10;99.90
15717;DHT22;7960;50.908;4.204;2023-05-29T08:31:20;15.10;99.90
15717;DHT22;7960;50.908;4.204;2023-05-29T08:33:49;15.20;99.90
15717;DHT22;7960;50.908;4.204;2023-05-29T08:36:16;15.40;99.90
15717;DHT22;7960;50.908;4.204;2023-05-29T08:38:44;15.40;99.90
15717;DHT22;7960;50.908;4.204;2023-05-29T08:41:15;15.60;99.90
15717;DHT22;7960;50.908;4.204;2023-05-29T08:43:46;15.50;99.90
15717;DHT22;7960;50.908;4.204;2023-05-29T08:46:14;15.50;99.90
15717;DHT22;7960;50.908;4.204;2023-05-29T08:48:43;15.60;99.90
15717;DHT22;7960;50.908;4.204;2023-05-29T08:51:12;15.70;99.90
15717;DHT22;7960;50.908;4.204;2023-05-29T08:53:40;15.80;99.90
15717;DHT22;7960;50.908;4.204;2023-05-29T08:56:08;15.90;99.90
15717;DHT22;7960;50.908;4.204;2023-05-29T08:58:35;15.90;99.80
15717;DHT22;7960;50.908;4.204;2023-05-29T09:01:02;15.80;99.90
15717;DHT22;7960;50.908;4.204;2023-05-29T09:03:29;16.00;99.70
15717;DHT22;7960;50.908;4.204;2023-05-29T09:05:58;16.10;99.10
15717;DHT22;7960;50.908;4.204;2023-05-29T09:08:26;16.30;99.20
15717;DHT22;7960;50.908;4.204;2023-05-29T09:10:54;16.50;99.00
15717;DHT22;7960;50.908;4.204;2023-05-29T09:13:23;16.60;98.90
15717;DHT22;7960;50.908;4.204;2023-05-29T09:15:57;16.60;98.10
15717;DHT22;7960;50.908;4.204;2023-05-29T09:18:25;16.70;97.90
15717;DHT22;7960;50.908;4.204;2023-05-29T09:20:55;16.90;97.90
15717;DHT22;7960;50.908;4.204;2023-05-29T09:23:23;17.00;97.30
15717;DHT22;7960;50.908;4.204;2023-05-29T09:25:52;17.10;97.40
15717;DHT22;7960;50.908;4.204;2023-05-29T09:28:22;17.00;96.70
15717;DHT22;7960;50.908;4.204;2023-05-29T09:30:52;17.20;96.90
15717;DHT22;7960;50.908;4.204;2023-05-29T09:33:19;17.00;96.30
15717;DHT22;7960;50.908;4.204;2023-05-29T09:35:47;17.20;96.20
15717;DHT22;7960;50.908;4.204;2023-05-29T09:38:15;17.30;96.20
15717;DHT22;7960;50.908;4.204;2023-05-29T09:40:42;17.30;95.50
15717;DHT22;7960;50.908;4.204;2023-05-29T09:43:12;17.30;95.00
15717;DHT22;7960;50.908;4.204;2023-05-29T09:45:41;17.20;95.00
15717;DHT22;7960;50.908;4.204;2023-05-29T09:48:12;17.40;95.20
15717;DHT22;7960;50.908;4.204;2023-05-29T09:50:40;17.40;94.90
15717;DHT22;7960;50.908;4.204;2023-05-29T09:53:17;17.60;94.90
15717;DHT22;7960;50.908;4.204;2023-05-29T09:55:48;17.60;94.60
15717;DHT22;7960;50.908;4.204;2023-05-29T09:58:17;17.70;93.90
15717;DHT22;7960;50.908;4.204;2023-05-29T10:00:46;17.80;94.20
15717;DHT22;7960;50.908;4.204;2023-05-29T10:03:14;18.00;93.80
15717;DHT22;7960;50.908;4.204;2023-05-29T10:05:42;17.90;93.70
15717;DHT22;7960;50.908;4.204;2023-05-29T10:08:13;18.10;93.90
15717;DHT22;7960;50.908;4.204;2023-05-29T10:10:42;18.30;93.50
15717;DHT22;7960;50.908;4.204;2023-05-29T10:13:11;18.40;92.80
15717;DHT22;7960;50.908;4.204;2023-05-29T10:15:41;18.50;92.30
15717;DHT22;7960;50.908;4.204;2023-05-29T10:18:13;18.50;92.10
15717;DHT22;7960;50.908;4.204;2023-05-29T10:20:49;18.60;92.00
15717;DHT22;7960;50.908;4.204;2023-05-29T10:23:19;18.70;91.90
15717;DHT22;7960;50.908;4.204;2023-05-29T10:25:49;18.70;91.60
15717;DHT22;7960;50.908;4.204;2023-05-29T10:28:18;18.70;91.60
15717;DHT22;7960;50.908;4.204;2023-05-29T10:30:49;18.70;91.70
15717;DHT22;7960;50.908;4.204;2023-05-29T10:33:38;18.90;92.00
15717;DHT22;7960;50.908;4.204;2023-05-29T10:36:11;19.00;91.30
15717;DHT22;7960;50.908;4.204;2023-05-29T10:38:40;19.30;91.20
15717;DHT22;7960;50.908;4.204;2023-05-29T10:41:30;19.30;91.00
15717;DHT22;7960;50.908;4.204;2023-05-29T10:43:59;19.10;90.60
15717;DHT22;7960;50.908;4.204;2023-05-29T10:49:29;19.10;89.90
15717;DHT22;7960;50.908;4.204;2023-05-29T10:51:58;19.10;90.00
15717;DHT22;7960;50.908;4.204;2023-05-29T10:54:26;19.10;90.10
15717;DHT22;7960;50.908;4.204;2023-05-29T10:56:56;19.00;90.10
15717;DHT22;7960;50.908;4.204;2023-05-29T10:59:23;19.20;90.20
15717;DHT22;7960;50.908;4.204;2023-05-29T11:01:53;19.10;89.60
15717;DHT22;7960;50.908;4.204;2023-05-29T11:04:28;19.10;89.90
15717;DHT22;7960;50.908;4.204;2023-05-29T11:06:57;19.10;90.00
15717;DHT22;7960;50.908;4.204;2023-05-29T11:09:32;19.30;90.40
15717;DHT22;7960;50.908;4.204;2023-05-29T11:12:16;19.40;90.10
15717;DHT22;7960;50.908;4.204;2023-05-29T11:15:03;19.40;89.30
15717;DHT22;7960;50.908;4.204;2023-05-29T11:17:43;19.60;89.40
15717;DHT22;7960;50.908;4.204;2023-05-29T11:20:18;19.80;89.00
15717;DHT22;7960;50.908;4.204;2023-05-29T11:22:58;19.60;89.00
15717;DHT22;7960;50.908;4.204;2023-05-29T11:25:28;19.60;88.20
15717;DHT22;7960;50.908;4.204;2023-05-29T11:27:58;19.70;88.40
15717;DHT22;7960;50.908;4.204;2023-05-29T11:30:25;19.90;88.30
15717;DHT22;7960;50.908;4.204;2023-05-29T11:32:53;20.20;87.60
15717;DHT22;7960;50.908;4.204;2023-05-29T11:35:22;20.00;86.60
15717;DHT22;7960;50.908;4.204;2023-05-29T11:37:49;19.80;87.30
15717;DHT22;7960;50.908;4.204;2023-05-29T11:40:16;19.90;87.90
15717;DHT22;7960;50.908;4.204;2023-05-29T11:42:44;20.30;87.90
15717;DHT22;7960;50.908;4.204;2023-05-29T11:45:12;20.30;87.00
15717;DHT22;7960;50.908;4.204;2023-05-29T11:47:53;20.30;85.90
15717;DHT22;7960;50.908;4.204;2023-05-29T11:50:20;20.40;86.50
15717;DHT22;7960;50.908;4.204;2023-05-29T11:52:49;20.50;86.10
15717;DHT22;7960;50.908;4.204;2023-05-29T11:55:17;20.70;84.80
15717;DHT22;7960;50.908;4.204;2023-05-29T11:57:45;20.70;84.00
15717;DHT22;7960;50.908;4.204;2023-05-29T12:00:13;20.60;83.80
15717;DHT22;7960;50.908;4.204;2023-05-29T12:02:42;20.50;84.70
15717;DHT22;7960;50.908;4.204;2023-05-29T12:05:13;20.80;85.30
15717;DHT22;7960;50.908;4.204;2023-05-29T12:07:48;21.00;84.90
15717;DHT22;7960;50.908;4.204;2023-05-29T12:10:16;21.00;84.00
15717;DHT22;7960;50.908;4.204;2023-05-29T12:12:47;20.90;82.90
15717;DHT22;7960;50.908;4.204;2023-05-29T12:15:14;21.00;84.60
15717;DHT22;7960;50.908;4.204;2023-05-29T12:17:43;20.90;82.50
15717;DHT22;7960;50.908;4.204;2023-05-29T12:20:11;21.20;84.40
15717;DHT22;7960;50.908;4.204;2023-05-29T12:22:40;21.30;81.90
15717;DHT22;7960;50.908;4.204;2023-05-29T12:25:10;21.50;81.50
15717;DHT22;7960;50.908;4.204;2023-05-29T12:27:38;21.40;80.80
15717;DHT22;7960;50.908;4.204;2023-05-29T12:30:09;21.60;81.60
15717;DHT22;7960;50.908;4.204;2023-05-29T12:32:37;21.80;81.50
15717;DHT22;7960;50.908;4.204;2023-05-29T12:35:17;22.00;80.70
15717;DHT22;7960;50.908;4.204;2023-05-29T12:37:48;22.20;79.40
15717;DHT22;7960;50.908;4.204;2023-05-29T12:40:20;22.30;79.90
15717;DHT22;7960;50.908;4.204;2023-05-29T12:42:48;22.10;77.90
15717;DHT22;7960;50.908;4.204;2023-05-29T12:45:17;21.80;78.20
15717;DHT22;7960;50.908;4.204;2023-05-29T12:47:51;21.70;79.40
15717;DHT22;7960;50.908;4.204;2023-05-29T12:50:23;21.80;79.60
15717;DHT22;7960;50.908;4.204;2023-05-29T12:52:55;21.90;80.70
15717;DHT22;7960;50.908;4.204;2023-05-29T12:55:23;22.10;78.80
15717;DHT22;7960;50.908;4.204;2023-05-29T12:57:50;22.40;78.50
15717;DHT22;7960;50.908;4.204;2023-05-29T13:00:19;22.70;77.50
15717;DHT22;7960;50.908;4.204;2023-05-29T13:02:46;23.00;76.90
15717;DHT22;7960;50.908;4.204;2023-05-29T13:05:13;23.10;76.50
15717;DHT22;7960;50.908;4.204;2023-05-29T13:07:41;23.00;75.30
15717;DHT22;7960;50.908;4.204;2023-05-29T13:10:08;22.60;75.70
15717;DHT22;7960;50.908;4.204;2023-05-29T13:12:37;22.50;76.20
15717;DHT22;7960;50.908;4.204;2023-05-29T13:15:05;22.30;76.50
15717;DHT22;7960;50.908;4.204;2023-05-29T13:17:32;22.40;76.70
15717;DHT22;7960;50.908;4.204;2023-05-29T13:20:00;22.60;77.70
15717;DHT22;7960;50.908;4.204;2023-05-29T13:22:26;22.50;76.50
15717;DHT22;7960;50.908;4.204;2023-05-29T13:24:57;22.40;76.70
15717;DHT22;7960;50.908;4.204;2023-05-29T13:27:24;22.60;76.40
15717;DHT22;7960;50.908;4.204;2023-05-29T13:29:54;22.60;76.90
15717;DHT22;7960;50.908;4.204;2023-05-29T13:32:21;22.50;75.90
15717;DHT22;7960;50.908;4.204;2023-05-29T13:34:47;22.30;75.90
15717;DHT22;7960;50.908;4.204;2023-05-29T13:37:14;22.30;76.40
15717;DHT22;7960;50.908;4.204;2023-05-29T13:39:41;22.30;76.80
15717;DHT22;7960;50.908;4.204;2023-05-29T13:42:08;22.70;77.10
15717;DHT22;7960;50.908;4.204;2023-05-29T13:44:36;22.90;75.40
15717;DHT22;7960;50.908;4.204;2023-05-29T13:47:05;22.70;74.40
15717;DHT22;7960;50.908;4.204;2023-05-29T13:49:32;22.80;74.70
15717;DHT22;7960;50.908;4.204;2023-05-29T13:51:59;22.70;74.00
15717;DHT22;7960;50.908;4.204;2023-05-29T13:54:26;22.80;74.00
15717;DHT22;7960;50.908;4.204;2023-05-29T13:56:55;22.80;73.90
15717;DHT22;7960;50.908;4.204;2023-05-29T13:59:23;22.90;74.80
15717;DHT22;7960;50.908;4.204;2023-05-29T14:01:50;23.00;74.20
15717;DHT22;7960;50.908;4.204;2023-05-29T14:04:18;23.30;74.10
15717;DHT22;7960;50.908;4.204;2023-05-29T14:06:45;23.30;73.30
15717;DHT22;7960;50.908;4.204;2023-05-29T14:09:12;23.20;73.20
15717;DHT22;7960;50.908;4.204;2023-05-29T14:11:39;23.20;72.10
15717;DHT22;7960;50.908;4.204;2023-05-29T14:14:06;22.70;72.30
15717;DHT22;7960;50.908;4.204;2023-05-29T14:16:33;22.60;73.60
15717;DHT22;7960;50.908;4.204;2023-05-29T14:19:00;22.80;74.00
15717;DHT22;7960;50.908;4.204;2023-05-29T14:21:28;23.10;74.20
15717;DHT22;7960;50.908;4.204;2023-05-29T14:23:56;23.20;74.00
15717;DHT22;7960;50.908;4.204;2023-05-29T14:26:23;23.20;74.20
15717;DHT22;7960;50.908;4.204;2023-05-29T14:28:50;23.40;74.20
15717;DHT22;7960;50.908;4.204;2023-05-29T14:31:16;23.40;74.10
15717;DHT22;7960;50.908;4.204;2023-05-29T14:33:43;23.20;73.40
15717;DHT22;7960;50.908;4.204;2023-05-29T14:36:10;22.90;73.20
15717;DHT22;7960;50.908;4.204;2023-05-29T14:38:39;22.60;73.40
15717;DHT22;7960;50.908;4.204;2023-05-29T14:41:06;22.50;73.80
15717;DHT22;7960;50.908;4.204;2023-05-29T14:43:33;22.50;74.10
15717;DHT22;7960;50.908;4.204;2023-05-29T14:46:00;22.20;73.30
15717;DHT22;7960;50.908;4.204;2023-05-29T14:48:27;22.10;74.00
15717;DHT22;7960;50.908;4.204;2023-05-29T14:50:54;22.10;74.00
15717;DHT22;7960;50.908;4.204;2023-05-29T14:53:21;22.10;74.00
15717;DHT22;7960;50.908;4.204;2023-05-29T14:55:49;22.30;73.60
15717;DHT22;7960;50.908;4.204;2023-05-29T14:58:16;22.20;72.80
15717;DHT22;7960;50.908;4.204;2023-05-29T15:00:44;22.30;72.80
15717;DHT22;7960;50.908;4.204;2023-05-29T15:03:11;22.20;73.00
15717;DHT22;7960;50.908;4.204;2023-05-29T15:05:37;22.00;73.50
15717;DHT22;7960;50.908;4.204;2023-05-29T15:08:05;22.10;74.10
15717;DHT22;7960;50.908;4.204;2023-05-29T15:10:31;22.00;72.90
15717;DHT22;7960;50.908;4.204;2023-05-29T15:13:00;21.60;72.80
15717;DHT22;7960;50.908;4.204;2023-05-29T15:15:30;21.50;73.10
15717;DHT22;7960;50.908;4.204;2023-05-29T15:17:56;21.50;73.50
15717;DHT22;7960;50.908;4.204;2023-05-29T15:20:24;21.60;74.30
15717;DHT22;7960;50.908;4.204;2023-05-29T15:22:52;21.60;72.60
15717;DHT22;7960;50.908;4.204;2023-05-29T15:25:20;21.60;72.60
15717;DHT22;7960;50.908;4.204;2023-05-29T15:27:47;21.40;71.40
15717;DHT22;7960;50.908;4.204;2023-05-29T15:30:17;21.60;71.60
15717;DHT22;7960;50.908;4.204;2023-05-29T15:32:45;21.60;70.80
15717;DHT22;7960;50.908;4.204;2023-05-29T15:35:14;21.60;70.10
15717;DHT22;7960;50.908;4.204;2023-05-29T15:37:42;21.40;69.00
15717;DHT22;7960;50.908;4.204;2023-05-29T15:40:10;21.20;68.50
15717;DHT22;7960;50.908;4.204;2023-05-29T15:42:37;21.40;68.70
15717;DHT22;7960;50.908;4.204;2023-05-29T15:45:05;21.20;67.70
15717;DHT22;7960;50.908;4.204;2023-05-29T15:47:33;21.40;68.90
15717;DHT22;7960;50.908;4.204;2023-05-29T15:50:00;21.30;68.30
15717;DHT22;7960;50.908;4.204;2023-05-29T15:52:27;21.20;69.00
15717;DHT22;7960;50.908;4.204;2023-05-29T15:54:54;21.30;69.70